createdAt,value
2023-11-24T00:01:10.444Z,99264.63
2023-11-24T00:03:37.349Z,99269.94
2023-11-24T00:06:04.021Z,99267.13
2023-11-24T00:08:30.614Z,99271.22
2023-11-24T00:10:57.149Z,99262.22
2023-11-24T00:13:23.695Z,99251.00
2023-11-24T00:15:52.786Z,99249.59
2023-11-24T00:18:22.474Z,99240.16
2023-11-24T00:20:49.210Z,99222.63
2023-11-24T00:23:17.100Z,99217.25
2023-11-24T00:25:43.719Z,99205.56
2023-11-24T00:28:10.264Z,99198.19
2023-11-24T00:30:36.820Z,99192.50
2023-11-24T00:33:03.756Z,99178.19
2023-11-24T00:35:32.385Z,99166.50
2023-11-24T00:37:58.997Z,99159.19
2023-11-24T00:40:25.569Z,99157.34
2023-11-24T00:42:52.131Z,99153.19
2023-11-24T00:45:19.546Z,99147.03
2023-11-24T00:47:46.338Z,99153.03
2023-11-24T00:50:12.933Z,99144.13
2023-11-24T00:52:39.602Z,99155.19
2023-11-24T00:55:06.814Z,99152.44
2023-11-24T00:57:34.081Z,99150.97
2023-11-24T01:00:01.529Z,99147.56
2023-11-24T01:02:28.241Z,99144.03
2023-11-24T01:04:54.879Z,99136.00
2023-11-24T01:07:21.571Z,99133.00
2023-11-24T01:09:48.180Z,99137.88
2023-11-24T01:12:15.361Z,99128.53
2023-11-24T01:14:41.947Z,99132.63
2023-11-24T01:17:08.638Z,99138.25
2023-11-24T01:19:35.193Z,99140.41
2023-11-24T01:22:01.790Z,99142.63
2023-11-24T01:24:28.449Z,99131.88
2023-11-24T01:26:55.641Z,99127.94
2023-11-24T01:29:22.463Z,99119.97
2023-11-24T01:31:49.032Z,99108.97
2023-11-24T01:34:15.986Z,99098.28
2023-11-24T01:36:43.814Z,99085.09
2023-11-24T01:39:13.772Z,99081.34
2023-11-24T01:41:41.606Z,99074.13
2023-11-24T01:44:09.606Z,99060.97
2023-11-24T01:46:36.300Z,99050.66
2023-11-24T01:49:04.584Z,99046.19
2023-11-24T01:51:31.875Z,99040.00
2023-11-24T01:53:59.193Z,99045.44
2023-11-24T01:56:26.991Z,99038.72
2023-11-24T01:58:53.882Z,99046.03
2023-11-24T02:01:25.977Z,99029.16
2023-11-24T02:03:52.953Z,99033.38
2023-11-24T02:06:20.040Z,99028.88
2023-11-24T02:08:47.716Z,99009.50
2023-11-24T02:11:14.547Z,99018.97
2023-11-24T02:13:40.979Z,99011.91
2023-11-24T02:16:08.369Z,99003.13
2023-11-24T02:18:34.991Z,98980.28
2023-11-24T02:21:03.735Z,98979.16
2023-11-24T02:23:31.509Z,98968.91
2023-11-24T02:25:58.410Z,98975.63
2023-11-24T02:28:25.358Z,98962.34
2023-11-24T02:30:52.012Z,98951.72
2023-11-24T02:33:20.127Z,98940.19
2023-11-24T02:35:47.524Z,98932.03
2023-11-24T02:38:14.107Z,98936.03
2023-11-24T02:40:44.143Z,98926.84
2023-11-24T02:43:10.969Z,98918.00
2023-11-24T02:45:37.580Z,98918.34
2023-11-24T02:48:04.427Z,98910.00
2023-11-24T02:50:31.053Z,98897.13
2023-11-24T02:52:57.633Z,98890.53
2023-11-24T02:55:24.213Z,98885.53
2023-11-24T02:57:50.899Z,98892.13
2023-11-24T03:00:19.264Z,98884.72
2023-11-24T03:02:47.705Z,98894.66
2023-11-24T03:05:15.156Z,98892.13
2023-11-24T03:07:41.730Z,98891.16
2023-11-24T03:10:09.808Z,98893.78
2023-11-24T03:12:36.514Z,98902.22
2023-11-24T03:15:03.213Z,98893.81
2023-11-24T03:17:29.829Z,98891.19
2023-11-24T03:19:56.427Z,98878.81
2023-11-24T03:22:23.175Z,98875.97
2023-11-24T03:24:49.792Z,98863.44
2023-11-24T03:27:16.494Z,98851.69
2023-11-24T03:29:43.058Z,98848.97
2023-11-24T03:32:09.945Z,98843.56
2023-11-24T03:34:37.324Z,98839.28
2023-11-24T03:37:04.068Z,98835.00
2023-11-24T03:39:31.405Z,98821.03
2023-11-24T03:41:57.933Z,98811.38
2023-11-24T03:44:25.022Z,98811.25
2023-11-24T03:46:51.618Z,98793.94
2023-11-24T03:49:18.245Z,98799.34
2023-11-24T03:51:44.862Z,98789.88
2023-11-24T03:54:11.472Z,98789.44
2023-11-24T03:56:39.059Z,98786.50
2023-11-24T03:59:05.649Z,98782.53
2023-11-24T04:01:32.481Z,98772.47
2023-11-24T04:04:00.258Z,98776.88
2023-11-24T04:06:27.028Z,98768.81
2023-11-24T04:08:53.657Z,98771.22
2023-11-24T04:11:20.225Z,98762.41
2023-11-24T04:13:46.787Z,98753.38
2023-11-24T04:16:15.711Z,98749.34
2023-11-24T04:18:42.467Z,98736.00
2023-11-24T04:21:09.070Z,98727.69
2023-11-24T04:23:35.748Z,98711.84
2023-11-24T04:26:02.282Z,98711.13
2023-11-24T04:28:28.909Z,98717.50
2023-11-24T04:30:55.482Z,98716.81
2023-11-24T04:33:22.266Z,98709.06
2023-11-24T04:35:50.100Z,98707.16
2023-11-24T04:38:16.722Z,98699.91
2023-11-24T04:40:44.088Z,98702.41
2023-11-24T04:43:10.700Z,98692.03
2023-11-24T04:45:37.453Z,98694.28
2023-11-24T04:48:04.321Z,98681.53
2023-11-24T04:50:30.941Z,98665.41
2023-11-24T04:52:57.579Z,98670.31
2023-11-24T04:55:24.131Z,98670.22
2023-11-24T04:57:51.302Z,98655.41
2023-11-24T05:00:19.403Z,98660.31
2023-11-24T05:02:46.938Z,98668.69
2023-11-24T05:05:13.608Z,98661.16
2023-11-24T05:07:40.361Z,98660.91
2023-11-24T05:10:07.520Z,98650.50
2023-11-24T05:12:36.008Z,98646.44
2023-11-24T05:15:09.436Z,98643.34
2023-11-24T05:17:36.700Z,98643.28
2023-11-24T05:20:04.354Z,98644.47
2023-11-24T05:22:31.012Z,98646.34
2023-11-24T05:24:58.525Z,98632.06
2023-11-24T05:27:25.266Z,98632.19
2023-11-24T05:29:51.794Z,98620.63
2023-11-24T05:32:18.561Z,98622.91
2023-11-24T05:34:45.167Z,98612.88
2023-11-24T05:37:12.204Z,98607.75
2023-11-24T05:39:39.036Z,98602.75
2023-11-24T05:42:06.222Z,98594.88
2023-11-24T05:44:32.823Z,98590.81
2023-11-24T05:46:59.774Z,98583.50
2023-11-24T05:49:26.432Z,98586.41
2023-11-24T05:51:55.900Z,98569.00
2023-11-24T05:54:22.421Z,98578.94
2023-11-24T05:56:48.985Z,98570.28
2023-11-24T05:59:15.574Z,98572.56
2023-11-24T06:01:43.563Z,98581.69
2023-11-24T06:04:10.798Z,98584.44
2023-11-24T06:06:37.597Z,98581.69
2023-11-24T06:09:04.470Z,98584.22
2023-11-24T06:11:31.013Z,98580.13
2023-11-24T06:13:57.598Z,98577.03
2023-11-24T06:16:24.203Z,98589.09
2023-11-24T06:18:50.740Z,98582.72
2023-11-24T06:21:17.783Z,98575.47
2023-11-24T06:23:51.487Z,98581.28
2023-11-24T06:26:19.000Z,98577.47
2023-11-24T06:28:45.823Z,98577.25
2023-11-24T06:31:15.727Z,98583.78
2023-11-24T06:33:42.830Z,98585.91
2023-11-24T06:36:09.973Z,98588.00
2023-11-24T06:38:36.566Z,98591.16
2023-11-24T06:41:03.531Z,98587.72
2023-11-24T06:43:30.064Z,98581.56
2023-11-24T06:45:56.694Z,98590.53
2023-11-24T06:48:24.388Z,98591.22
2023-11-24T06:50:51.023Z,98596.50
2023-11-24T06:53:17.642Z,98588.66
2023-11-24T06:55:44.998Z,98607.88
2023-11-24T06:58:11.595Z,98594.88
2023-11-24T07:00:38.245Z,98602.91
2023-11-24T07:03:05.822Z,98597.03
2023-11-24T07:05:32.335Z,98589.88
2023-11-24T07:07:59.211Z,98600.00
2023-11-24T07:10:27.690Z,98609.09
2023-11-24T07:12:54.569Z,98597.38
2023-11-24T07:15:21.214Z,98599.63
2023-11-24T07:17:48.043Z,98594.16
2023-11-24T07:20:14.781Z,98592.00
2023-11-24T07:22:43.002Z,98592.75
2023-11-24T07:25:11.790Z,98586.28
2023-11-24T07:27:38.420Z,98592.81
2023-11-24T07:30:05.811Z,98601.97
2023-11-24T07:32:32.447Z,98600.72
2023-11-24T07:34:59.106Z,98597.66
2023-11-24T07:37:27.909Z,98606.75
2023-11-24T07:39:54.979Z,98612.09
2023-11-24T07:42:23.612Z,98618.75
2023-11-24T07:44:50.151Z,98610.09
2023-11-24T07:47:19.850Z,98602.53
2023-11-24T07:49:47.244Z,98608.66
2023-11-24T07:52:13.823Z,98602.06
2023-11-24T07:54:43.363Z,98603.19
2023-11-24T07:57:10.199Z,98606.56
2023-11-24T07:59:36.822Z,98614.22
2023-11-24T08:02:04.081Z,98617.00
2023-11-24T08:04:30.923Z,98610.19
2023-11-24T08:06:57.676Z,98622.41
2023-11-24T08:09:26.822Z,98621.03
2023-11-24T08:11:53.492Z,98624.38
2023-11-24T08:14:24.795Z,98628.84
2023-11-24T08:16:54.697Z,98614.22
2023-11-24T08:19:26.767Z,98616.31
2023-11-24T08:21:53.329Z,98612.41
2023-11-24T08:24:19.933Z,98621.03
2023-11-24T08:26:46.607Z,98622.59
2023-11-24T08:29:13.535Z,98616.47
2023-11-24T08:31:45.654Z,98615.34
2023-11-24T08:34:12.668Z,98614.94
2023-11-24T08:36:41.634Z,98612.00
2023-11-24T08:39:14.470Z,98616.31
2023-11-24T08:41:45.574Z,98632.03
2023-11-24T08:44:13.387Z,98644.41
2023-11-24T08:46:40.532Z,98640.25
2023-11-24T08:49:07.309Z,98643.28
2023-11-24T08:51:34.039Z,98635.75
2023-11-24T08:54:00.651Z,98625.19
2023-11-24T08:56:29.459Z,98631.59
2023-11-24T08:58:56.054Z,98618.50
2023-11-24T09:01:23.198Z,98605.72
2023-11-24T09:03:50.915Z,98590.44
2023-11-24T09:06:17.486Z,98591.66
2023-11-24T09:08:44.061Z,98589.88
2023-11-24T09:11:12.537Z,98583.59
2023-11-24T09:13:39.139Z,98581.81
2023-11-24T09:16:06.784Z,98570.97
2023-11-24T09:18:33.417Z,98584.72
2023-11-24T09:21:01.019Z,98568.16
2023-11-24T09:23:27.843Z,98559.69
2023-11-24T09:25:54.392Z,98555.06
2023-11-24T09:28:21.835Z,98545.31
2023-11-24T09:30:48.692Z,98539.06
2023-11-24T09:33:15.559Z,98533.31
2023-11-24T09:35:42.116Z,98510.75
2023-11-24T09:38:09.006Z,98505.47
2023-11-24T09:40:38.956Z,98505.47
2023-11-24T09:43:05.811Z,98517.97
2023-11-24T09:45:32.708Z,98511.03
2023-11-24T09:48:00.270Z,98495.47
2023-11-24T09:50:28.364Z,98491.00
2023-11-24T09:52:57.161Z,98477.06
2023-11-24T09:55:28.513Z,98483.81
2023-11-24T09:57:57.246Z,98480.59
2023-11-24T10:00:26.943Z,98469.09
2023-11-24T10:03:04.097Z,98467.53
2023-11-24T10:05:31.099Z,98459.88
2023-11-24T10:07:58.372Z,98459.03
2023-11-24T10:10:29.946Z,98456.19
2023-11-24T10:13:01.018Z,98443.13
2023-11-24T10:15:28.000Z,98450.31
2023-11-24T10:17:56.008Z,98446.31
2023-11-24T10:20:24.107Z,98472.38
2023-11-24T10:22:51.441Z,98457.38
2023-11-24T10:25:25.042Z,98438.09
2023-11-24T10:28:00.661Z,98433.75
2023-11-24T10:30:27.766Z,98423.44
2023-11-24T10:32:54.444Z,98415.59
2023-11-24T10:35:21.111Z,98415.59
2023-11-24T10:37:48.498Z,98422.69
2023-11-24T10:40:16.848Z,98417.38
2023-11-24T10:42:49.740Z,98413.38
2023-11-24T10:45:20.962Z,98411.03
2023-11-24T10:48:04.415Z,98395.63
2023-11-24T10:50:37.366Z,98403.41
2023-11-24T10:53:23.593Z,98385.88
2023-11-24T10:55:54.122Z,98387.25
2023-11-24T10:58:22.521Z,98376.97
2023-11-24T11:00:49.432Z,98357.50
2023-11-24T11:03:17.754Z,98359.47
2023-11-24T11:05:55.539Z,98347.59
2023-11-24T11:08:38.043Z,98367.06
2023-11-24T11:11:07.615Z,98365.28
2023-11-24T11:13:37.660Z,98373.91
2023-11-24T11:16:07.369Z,98386.28
2023-11-24T11:18:34.592Z,98376.97
2023-11-24T11:21:12.243Z,98377.25
2023-11-24T11:23:39.852Z,98369.50
2023-11-24T11:26:08.855Z,98392.44
2023-11-24T11:28:37.909Z,98390.66
2023-11-24T11:31:24.624Z,98376.09
2023-11-24T11:33:51.484Z,98367.47
2023-11-24T11:36:20.968Z,98360.81
2023-11-24T11:38:54.692Z,98355.81
2023-11-24T11:41:37.231Z,98346.25
2023-11-24T11:44:21.429Z,98337.50
2023-11-24T11:47:14.249Z,98349.75
2023-11-24T11:49:42.032Z,98354.66
2023-11-24T11:52:12.695Z,98354.25
2023-11-24T11:54:40.847Z,98342.03
2023-11-24T11:57:08.478Z,98344.09
2023-11-24T11:59:35.635Z,98350.66
2023-11-24T12:02:02.652Z,98348.16
2023-11-24T12:04:29.705Z,98346.50
2023-11-24T12:06:57.016Z,98356.25
2023-11-24T12:09:24.416Z,98362.34
2023-11-24T12:11:50.925Z,98350.25
2023-11-24T12:14:17.543Z,98346.50
2023-11-24T12:16:44.552Z,98334.28
2023-11-24T12:19:11.778Z,98337.31
2023-11-24T12:21:47.490Z,98356.06
2023-11-24T12:24:17.030Z,98374.69
2023-11-24T12:26:46.054Z,98358.84
2023-11-24T12:29:14.685Z,98346.59
2023-11-24T12:31:42.539Z,98363.41
2023-11-24T12:34:28.957Z,98373.69
2023-11-24T12:36:56.257Z,98367.72
2023-11-24T12:39:32.058Z,98358.84
2023-11-24T12:41:59.730Z,98365.78
2023-11-24T12:44:27.996Z,98347.00
2023-11-24T12:47:17.998Z,98353.13
2023-11-24T12:50:02.336Z,98360.50
2023-11-24T12:52:33.718Z,98362.75
2023-11-24T12:55:02.795Z,98363.41
2023-11-24T12:57:29.756Z,98367.06
2023-11-24T12:59:57.998Z,98363.16
2023-11-24T13:02:25.518Z,98347.63
2023-11-24T13:04:52.226Z,98326.66
2023-11-24T13:07:19.238Z,98324.31
2023-11-24T13:09:46.161Z,98333.59
2023-11-24T13:12:18.433Z,98322.63
2023-11-24T13:14:47.225Z,98315.16
2023-11-24T13:17:14.032Z,98310.84
2023-11-24T13:19:40.827Z,98326.81
2023-11-24T13:22:10.904Z,98321.28
2023-11-24T13:24:38.282Z,98318.91
2023-11-24T13:27:06.035Z,98303.06
2023-11-24T13:29:33.104Z,98279.31
2023-11-24T13:31:59.841Z,98272.94
2023-11-24T13:34:26.575Z,98277.06
2023-11-24T13:36:53.367Z,98280.09
2023-11-24T13:39:25.970Z,98275.97
2023-11-24T13:41:56.536Z,98279.97
2023-11-24T13:44:24.178Z,98275.38
2023-11-24T13:46:53.898Z,98270.34
2023-11-24T13:49:21.046Z,98271.84
2023-11-24T13:51:47.759Z,98266.16
2023-11-24T13:54:15.366Z,98269.06
2023-11-24T13:56:43.295Z,98251.13
2023-11-24T13:59:12.912Z,98252.53
2023-11-24T14:01:41.425Z,98261.69
2023-11-24T14:04:12.348Z,98260.56
2023-11-24T14:06:40.745Z,98248.06
2023-11-24T14:09:18.433Z,98246.78
2023-11-24T14:11:49.104Z,98263.91
2023-11-24T14:14:16.448Z,98250.97
2023-11-24T14:16:44.288Z,98242.22
2023-11-24T14:19:11.830Z,98242.53
2023-11-24T14:21:38.877Z,98241.56
2023-11-24T14:24:11.784Z,98249.19
2023-11-24T14:26:39.512Z,98241.41
2023-11-24T14:29:06.689Z,98239.44
2023-11-24T14:31:34.241Z,98260.88
2023-11-24T14:34:01.899Z,98243.66
2023-11-24T14:36:29.033Z,98250.31
2023-11-24T14:38:56.836Z,98251.97
2023-11-24T14:41:23.681Z,98236.81
2023-11-24T14:43:50.845Z,98233.56
2023-11-24T14:46:20.150Z,98225.66
2023-11-24T14:48:53.882Z,98234.94
2023-11-24T14:51:22.095Z,98235.34
2023-11-24T14:53:50.937Z,98240.63
2023-11-24T14:56:17.804Z,98240.31
2023-11-24T14:58:44.694Z,98232.06
2023-11-24T15:01:11.644Z,98237.09
2023-11-24T15:03:40.135Z,98231.78
2023-11-24T15:06:08.162Z,98213.31
2023-11-24T15:08:47.617Z,98196.94
2023-11-24T15:11:16.710Z,98192.88
2023-11-24T15:13:44.142Z,98196.63
2023-11-24T15:16:20.335Z,98208.72
2023-11-24T15:18:50.320Z,98208.03
2023-11-24T15:21:34.959Z,98216.63
2023-11-24T15:24:03.610Z,98228.47
2023-11-24T15:26:31.197Z,98226.28
2023-11-24T15:28:57.779Z,98223.78
2023-11-24T15:31:28.480Z,98213.53
2023-11-24T15:33:55.402Z,98216.16
2023-11-24T15:36:28.271Z,98233.50
2023-11-24T15:38:59.915Z,98227.25
2023-11-24T15:41:37.174Z,98236.91
2023-11-24T15:44:07.734Z,98247.38
2023-11-24T15:46:39.724Z,98249.38
2023-11-24T15:49:16.115Z,98251.88
2023-11-24T15:51:46.202Z,98255.19
2023-11-24T15:54:14.085Z,98247.13
2023-11-24T15:56:40.915Z,98245.03
2023-11-24T15:59:16.582Z,98250.00
2023-11-24T16:01:43.699Z,98248.91
2023-11-24T16:04:11.995Z,98243.63
2023-11-24T16:06:46.109Z,98232.88
2023-11-24T16:09:22.621Z,98218.91
2023-11-24T16:12:13.567Z,98225.16
2023-11-24T16:14:40.367Z,98226.84
2023-11-24T16:17:08.930Z,98240.19
2023-11-24T16:19:36.222Z,98250.66
2023-11-24T16:22:03.138Z,98259.25
2023-11-24T16:24:29.802Z,98244.75
2023-11-24T16:26:56.626Z,98232.06
2023-11-24T16:29:23.788Z,98227.63
2023-11-24T16:31:52.569Z,98227.19
2023-11-24T16:34:21.613Z,98230.38
2023-11-24T16:36:48.523Z,98244.78
2023-11-24T16:39:23.799Z,98249.38
2023-11-24T16:41:51.169Z,98253.28
2023-11-24T16:44:18.057Z,98239.09
2023-11-24T16:46:56.567Z,98232.06
2023-11-24T16:49:23.589Z,98243.47
2023-11-24T16:51:50.319Z,98245.13
2023-11-24T16:54:17.164Z,98245.13
2023-11-24T16:56:44.863Z,98224.69
2023-11-24T16:59:11.466Z,98203.09
2023-11-24T17:01:38.211Z,98203.25
2023-11-24T17:04:06.251Z,98205.88
2023-11-24T17:06:33.869Z,98205.03
2023-11-24T17:09:00.385Z,98217.84
2023-11-24T17:11:26.961Z,98213.03
2023-11-24T17:13:53.553Z,98203.94
2023-11-24T17:16:21.874Z,98211.03
2023-11-24T17:18:48.755Z,98200.91
2023-11-24T17:21:15.451Z,98193.31
2023-11-24T17:23:42.871Z,98193.44
2023-11-24T17:26:13.056Z,98201.53
2023-11-24T17:28:40.732Z,98204.72
2023-11-24T17:31:09.623Z,98196.56
2023-11-24T17:33:37.121Z,98196.84
2023-11-24T17:36:06.691Z,98190.88
2023-11-24T17:38:33.347Z,98188.25
2023-11-24T17:41:02.087Z,98183.00
2023-11-24T17:43:28.793Z,98179.41
2023-11-24T17:45:56.128Z,98173.00
2023-11-24T17:48:23.443Z,98163.31
2023-11-24T17:50:50.112Z,98151.69
2023-11-24T17:53:16.850Z,98133.13
2023-11-24T17:55:43.806Z,98135.31
2023-11-24T17:58:11.338Z,98135.31
2023-11-24T18:03:08.854Z,98121.59
2023-11-24T18:05:36.761Z,98135.34
2023-11-24T18:08:04.180Z,98138.94
2023-11-24T18:10:31.311Z,98143.66
2023-11-24T18:12:58.816Z,98153.34
2023-11-24T18:15:28.199Z,98156.69
2023-11-24T18:17:54.890Z,98159.03
2023-11-24T18:20:22.831Z,98157.22
2023-11-24T18:22:49.648Z,98170.81
2023-11-24T18:25:16.413Z,98181.91
2023-11-24T18:27:44.295Z,98187.13
2023-11-24T18:30:11.636Z,98187.13
2023-11-24T18:32:39.142Z,98191.56
2023-11-24T18:35:06.002Z,98179.47
2023-11-24T18:37:32.751Z,98162.72
2023-11-24T18:40:01.800Z,98154.56
2023-11-24T18:42:30.565Z,98164.69
2023-11-24T18:44:57.188Z,98182.97
2023-11-24T18:47:27.336Z,98172.72
2023-11-24T18:49:54.655Z,98162.78
2023-11-24T18:52:21.975Z,98152.94
2023-11-24T18:54:49.471Z,98154.97
2023-11-24T18:57:16.305Z,98148.47
2023-11-24T18:59:43.032Z,98163.47
2023-11-24T19:02:10.425Z,98170.97
2023-11-24T19:04:37.461Z,98165.00
2023-11-24T19:07:04.427Z,98166.66
2023-11-24T19:09:31.059Z,98170.25
2023-11-24T19:11:57.863Z,98167.59
2023-11-24T19:14:24.409Z,98147.75
2023-11-24T19:16:51.765Z,98144.28
2023-11-24T19:19:18.472Z,98148.00
2023-11-24T19:21:45.440Z,98130.50
2023-11-24T19:24:12.062Z,98137.44
2023-11-24T19:26:38.678Z,98138.84
2023-11-24T19:29:10.967Z,98162.56
2023-11-24T19:31:39.793Z,98177.38
2023-11-24T19:34:08.797Z,98181.28
2023-11-24T19:36:35.838Z,98191.63
2023-11-24T19:39:02.539Z,98209.06
2023-11-24T19:41:29.982Z,98219.28
2023-11-24T19:43:56.626Z,98228.16
2023-11-24T19:46:24.720Z,98222.53
2023-11-24T19:48:54.611Z,98193.84
2023-11-24T19:51:21.510Z,98193.72
2023-11-24T19:53:50.584Z,98204.59
2023-11-24T19:56:19.222Z,98199.50
2023-11-24T19:58:45.912Z,98202.25
2023-11-24T20:01:12.684Z,98197.13
2023-11-24T20:03:40.142Z,98205.84
2023-11-24T20:06:07.626Z,98221.75
2023-11-24T20:08:34.927Z,98224.66
2023-11-24T20:11:01.746Z,98223.00
2023-11-24T20:13:29.572Z,98206.94
2023-11-24T20:15:57.817Z,98207.78
2023-11-24T20:18:24.724Z,98189.81
2023-11-24T20:20:52.745Z,98175.44
2023-11-24T20:23:19.767Z,98172.13
2023-11-24T20:25:46.750Z,98161.31
2023-11-24T20:28:14.240Z,98165.19
2023-11-24T20:30:41.048Z,98148.75
2023-11-24T20:33:07.793Z,98151.50
2023-11-24T20:35:34.614Z,98152.50
2023-11-24T20:38:02.793Z,98156.78
2023-11-24T20:40:29.525Z,98155.25
2023-11-24T20:42:56.260Z,98160.78
2023-11-24T20:45:22.980Z,98169.53
2023-11-24T20:47:50.362Z,98169.94
2023-11-24T20:50:19.434Z,98169.41
2023-11-24T20:52:46.664Z,98169.84
2023-11-24T20:55:18.281Z,98162.09
2023-11-24T20:57:45.251Z,98159.19
2023-11-24T21:00:12.882Z,98163.44
2023-11-24T21:02:40.597Z,98139.47
2023-11-24T21:05:09.191Z,98139.75
2023-11-24T21:07:37.298Z,98151.09
2023-11-24T21:10:05.434Z,98148.75
2023-11-24T21:12:32.736Z,98161.50
2023-11-24T21:15:00.564Z,98166.63
2023-11-24T21:17:27.912Z,98158.31
2023-11-24T21:19:54.772Z,98142.22
2023-11-24T21:22:21.688Z,98139.03
2023-11-24T21:24:51.366Z,98135.44
2023-11-24T21:27:19.059Z,98128.94
2023-11-24T21:29:45.748Z,98120.50
2023-11-24T21:32:12.381Z,98110.38
2023-11-24T21:34:38.964Z,98118.94
2023-11-24T21:37:09.124Z,98133.53
2023-11-24T21:39:38.665Z,98136.16
2023-11-24T21:42:05.503Z,98131.69
2023-11-24T21:44:32.176Z,98141.09
2023-11-24T21:46:58.863Z,98148.88
2023-11-24T21:49:25.534Z,98152.72
2023-11-24T21:51:52.200Z,98154.34
2023-11-24T21:54:18.745Z,98156.41
2023-11-24T21:56:45.360Z,98148.34
2023-11-24T21:59:12.433Z,98153.97
2023-11-24T22:01:39.262Z,98165.53
2023-11-24T22:04:06.526Z,98156.66
2023-11-24T22:06:36.670Z,98156.22
2023-11-24T22:09:05.576Z,98163.78
2023-11-24T22:11:35.534Z,98156.44
2023-11-24T22:14:02.148Z,98151.41
2023-11-24T22:16:28.861Z,98167.34
2023-11-24T22:18:55.581Z,98170.66
2023-11-24T22:21:22.511Z,98163.88
2023-11-24T22:23:49.605Z,98156.00
2023-11-24T22:26:22.117Z,98158.16
2023-11-24T22:28:50.772Z,98161.88
2023-11-24T22:31:17.702Z,98153.16
2023-11-24T22:33:44.621Z,98147.09
2023-11-24T22:36:19.571Z,98146.53
2023-11-24T22:38:47.498Z,98155.34
2023-11-24T22:41:18.048Z,98166.69
2023-11-24T22:43:45.151Z,98162.53
2023-11-24T22:46:12.101Z,98150.34
2023-11-24T22:48:39.152Z,98135.44
2023-11-24T22:51:05.965Z,98132.94
2023-11-24T22:53:32.874Z,98141.63
2023-11-24T22:55:59.575Z,98140.13
2023-11-24T22:58:26.176Z,98140.13
2023-11-24T23:00:54.443Z,98141.78
2023-11-24T23:03:21.154Z,98136.25
2023-11-24T23:05:48.252Z,98131.84
2023-11-24T23:08:15.190Z,98123.00
2023-11-24T23:10:41.800Z,98117.88
2023-11-24T23:13:08.623Z,98111.91
2023-11-24T23:15:35.590Z,98114.53
2023-11-24T23:18:02.330Z,98107.66
2023-11-24T23:20:29.373Z,98099.59
2023-11-24T23:22:55.982Z,98107.69
2023-11-24T23:25:22.604Z,98113.47
2023-11-24T23:27:49.215Z,98107.78
2023-11-24T23:30:16.440Z,98117.59
2023-11-24T23:32:45.891Z,98121.41
2023-11-24T23:35:13.037Z,98118.09
2023-11-24T23:37:44.000Z,98116.66
2023-11-24T23:40:15.104Z,98110.59
2023-11-24T23:42:46.376Z,98118.47
2023-11-24T23:45:13.378Z,98118.63
2023-11-24T23:47:40.022Z,98110.47
2023-11-24T23:50:09.559Z,98115.22
2023-11-24T23:52:36.729Z,98117.31
2023-11-24T23:55:05.145Z,98118.72
2023-11-24T23:57:31.979Z,98110.47
2023-11-24T23:59:58.571Z,98115.56
